D/T METAR WX W/DIR W/SPE G/SPE TEMP DEWP
3/07/20 22:50 EGVO 032150Z AUTO 21017KT 9999 OVC009/// 14/13 Q1014 SSW (210°) 19.6mph 14°C 13°C
3/07/20 21:50 EGVO 032050Z AUTO 21019KT 9999 OVC009/// 14/13 Q1014 RERA SSW (210°) 21.9mph 14°C 13°C
3/07/20 20:50 EGVO 031950Z AUTO 21015KT 9999 -RA BKN010/// 14/13 Q1014 -RA SSW (210°) 17.3mph 14°C 13°C
3/07/20 19:50 EGVO 031850Z AUTO 21014KT 9999 -RA BKN017/// SCT044/// 14/12 Q1015 -RA SSW (210°) 16.1mph 14°C 12°C
3/07/20 18:50 EGVO 031750Z AUTO 22018KT 9999 -RA OVC060/// 15/11 Q1015 -RA SW (220°) 20.7mph 15°C 11°C
3/07/20 17:50 EGVO 031650Z AUTO 21019KT 9999 FEW027/// BKN080/// 17/11 Q1015 SSW (210°) 21.9mph 17°C 11°C
3/07/20 16:50 EGVO 031550Z AUTO 21020KT 9999 SCT031/// SCT120/// 18/10 Q1015 SSW (210°) 23.0mph 18°C 10°C
3/07/20 15:50 EGVO 031450Z AUTO 21018KT 9999 FEW033/// 18/10 Q1016 SSW (210°) 20.7mph 18°C 10°C
3/07/20 14:50 EGVO 031350Z 22019G32KT 9999 FEW036 BKN250 20/10 Q1016 NOSIG RMK BLU BLU SW (220°) 21.9mph 36.8mph 20°C 10°C
3/07/20 14:20 EGVO 031320Z 21019KT 9999 FEW032 BKN250 18/09 Q1016 NOSIG RMK BLU BLU SSW (210°) 21.9mph 18°C 9°C
3/07/20 13:50 EGVO 031250Z 22017G28KT 9999 FEW032 BKN250 19/10 Q1016 NOSIG RMK BLU BLU SW (220°) 19.6mph 32.2mph 19°C 10°C
3/07/20 13:20 EGVO 031220Z 22017G27KT 9999 SCT032 BKN250 18/11 Q1016 NOSIG RMK BLU BLU SW (220°) 19.6mph 31.1mph 18°C 11°C
3/07/20 12:50 EGVO 031150Z 22020KT 9999 FEW032 BKN250 19/11 Q1016 NOSIG RMK BLU BLU SW (220°) 23.0mph 19°C 11°C
3/07/20 12:20 EGVO 031120Z 21018KT 9999 FEW034 BKN200 19/11 Q1016 NOSIG RMK BLU BLU SSW (210°) 20.7mph 19°C 11°C
3/07/20 11:50 EGVO 031050Z 23019KT 9999 FEW032 17/09 Q1017 NOSIG RMK BLU BLU SW (230°) 21.9mph 17°C 9°C
3/07/20 11:21 EGVO 031021Z 22017KT 9999 FEW030 SCT250 17/10 Q1017 NOSIG RMK BLU BLU SW (220°) 19.6mph 17°C 10°C
3/07/20 10:50 EGVO 030950Z 22015KT 9999 SCT028 16/10 Q1017 BECMG 24016G26KT RMK BLU BECMG BLU SW (220°) 17.3mph 16°C 10°C
3/07/20 10:20 EGVO 030920Z 22017KT 9999 SCT026 16/10 Q1017 NOSIG RMK BLU BLU SW (220°) 19.6mph 16°C 10°C
3/07/20 09:50 EGVO 030850Z 23015KT 9999 SCT025 16/10 Q1017 NOSIG RMK BLU BLU SW (230°) 17.3mph 16°C 10°C
3/07/20 09:20 EGVO 030820Z 23014KT 9999 FEW022 15/10 Q1017 NOSIG RMK BLU BLU SW (230°) 16.1mph 15°C 10°C
3/07/20 08:50 EGVO 030750Z 22013KT 9999 FEW017 SCT250 15/10 Q1017 NOSIG RMK BLU BLU SW (220°) 15.0mph 15°C 10°C
3/07/20 08:20 EGVO 030720Z 22013KT 9999 FEW012 SCT250 14/11 Q1017 NOSIG RMK BLU BLU SW (220°) 15.0mph 14°C 11°C
3/07/20 07:50 EGVO 030650Z 22011KT 9999 FEW010 SCT250 13/11 Q1017 NOSIG RMK BLU BLU SW (220°) 12.7mph 13°C 11°C
3/07/20 07:20 EGVO 030620Z 23010KT 9999 FEW010 SCT140 12/10 Q1017 NOSIG RMK BLU BLU SW (230°) 11.5mph 12°C 10°C
3/07/20 06:50 EGVO 030550Z AUTO 23009KT 9999 FEW140/// 12/10 Q1017 SW (230°) 10.4mph 12°C 10°C
3/07/20 05:50 EGVO 030450Z AUTO 22010KT 9999 NCD 11/10 Q1017 SW (220°) 11.5mph 11°C 10°C
3/07/20 04:50 EGVO 030350Z AUTO 23009KT 9999 SCT200/// 11/10 Q1017 SW (230°) 10.4mph 11°C 10°C
3/07/20 03:50 EGVO 030250Z AUTO 24007KT 9999 NCD 11/10 Q1016 WSW (240°) 8.1mph 11°C 10°C
3/07/20 02:50 EGVO 030150Z AUTO 24007KT 9999 SCT037/// 12/10 Q1016 WSW (240°) 8.1mph 12°C 10°C
3/07/20 02:21 EGVO 030121Z 24006KT CAVOK 12/11 Q1016 NOSIG RMK BLU BLU WSW (240°) 6.9mph 12°C 11°C
3/07/20 01:50 EGVO 030050Z 24008KT CAVOK 12/11 Q1016 NOSIG RMK BLU BLU WSW (240°) 9.2mph 12°C 11°C
3/07/20 01:20 EGVO 030020Z 25008KT CAVOK 13/11 Q1016 NOSIG RMK BLU BLU WSW (250°) 9.2mph 13°C 11°C
3/07/20 00:50 EGVO 022350Z 25007KT CAVOK 13/11 Q1016 NOSIG RMK BLU BLU WSW (250°) 8.1mph 13°C 11°C
3/07/20 00:20 EGVO 022320Z 26008KT CAVOK 13/11 Q1016 NOSIG RMK BLU BLU W (260°) 9.2mph 13°C 11°C
2/07/20 23:55 EGVO 022255Z 25007KT CAVOK 14/12 Q1016 NOSIG RMK BLU BLU WSW (250°) 8.1mph 14°C 12°C
2/07/20 23:22 EGVO 022222Z 25006KT CAVOK 14/12 Q1016 NOSIG RMK BLU BLU WSW (250°) 6.9mph 14°C 12°C
2/07/20 22:50 EGVO 022150Z 26007KT CAVOK 15/12 Q1016 NOSIG RMK BLU BLU W (260°) 8.1mph 15°C 12°C
2/07/20 22:22 EGVO 022122Z 26008KT CAVOK 16/12 Q1015 NOSIG RMK BLU BLU W (260°) 9.2mph 16°C 12°C
2/07/20 21:50 EGVO 022050Z 25008KT 9999 FEW030 SCT070 17/13 Q1015 NOSIG RMK BLU BLU WSW (250°) 9.2mph 17°C 13°C
2/07/20 21:24 EGVO 022024Z 26008KT 9999 FEW030 SCT070 17/13 Q1015 NOSIG RMK BLU BLU W (260°) 9.2mph 17°C 13°C
2/07/20 20:50 EGVO 021950Z 26005KT 9999 FEW030 SCT040 17/13 Q1014 NOSIG RMK BLU BLU W (260°) 5.8mph 17°C 13°C
2/07/20 20:20 EGVO 021920Z 28004KT 9999 FEW030 SCT090 18/13 Q1014 NOSIG RMK BLU BLU W (280°) 4.6mph 18°C 13°C
2/07/20 19:50 EGVO 021850Z 28008KT 9999 FEW030 BKN090 18/13 Q1014 NOSIG RMK BLU BLU W (280°) 9.2mph 18°C 13°C
2/07/20 19:21 EGVO 021821Z 27010KT 9999 FEW030 SCT060 18/12 Q1014 NOSIG RMK BLU BLU W (270°) 11.5mph 18°C 12°C
2/07/20 18:50 EGVO 021750Z 29007KT 9999 FEW030 SCT060 BKN090 18/13 Q1013 NOSIG RMK BLU BLU WNW (290°) 8.1mph 18°C 13°C
2/07/20 18:20 EGVO 021720Z 26012KT 9999 SCT030 BKN060 19/12 Q1013 NOSIG RMK BLU BLU W (260°) 13.8mph 19°C 12°C
2/07/20 17:50 EGVO 021650Z 27009KT 9999 FEW029 SCT090 20/13 Q1013 NOSIG RMK BLU BLU W (270°) 10.4mph 20°C 13°C
2/07/20 17:20 EGVO 021620Z 26013KT 9999 -SHRA SCT029 SCT040 BKN090 18/12 Q1013 NOSIG RMK BLU BLU -SHRA W (260°) 15.0mph 18°C 12°C
2/07/20 16:50 EGVO 021550Z 26014KT 9999 FEW026 SCT040 BKN090 20/13 Q1012 TEMPO 7000 SHRA RMK BLU TEMPO WHT W (260°) 16.1mph 20°C 13°C
2/07/20 16:20 EGVO 021520Z 25010KT 9999 FEW028 SCT050 BKN090 18/13 Q1012 TEMPO 7000 SHRA RMK BLU TEMPO WHT WSW (250°) 11.5mph 18°C 13°C
2/07/20 15:50 EGVO 021450Z 26013KT 9999 VCSH BKN028 BKN040 17/14 Q1012 RESHRA NOSIG RMK BLU BLU VCSH W (260°) 15.0mph 17°C 14°C
2/07/20 15:20 EGVO 021420Z 26013KT 9999 SCT030 BKN050 19/12 Q1012 NOSIG RMK BLU BLU W (260°) 15.0mph 19°C 12°C
2/07/20 14:50 EGVO 021350Z 25015KT 9999 SCT028 BKN040 BKN090 19/12 Q1012 NOSIG RMK BLU BLU WSW (250°) 17.3mph 19°C 12°C
2/07/20 14:20 EGVO 021320Z 26015KT 9999 FEW024 SCT030 18/12 Q1012 NOSIG RMK BLU BLU W (260°) 17.3mph 18°C 12°C
2/07/20 13:50 EGVO 021250Z 25014KT 9999 FEW022 SCT035 18/14 Q1012 NOSIG RMK BLU BLU WSW (250°) 16.1mph 18°C 14°C
2/07/20 13:20 EGVO 021220Z 24012KT 9999 FEW020 SCT060 BKN080 15/13 Q1012 RESHRA NOSIG RMK BLU BLU WSW (240°) 13.8mph 15°C 13°C
2/07/20 13:00 EGVO 021200Z 25020KT 5000 +SHRA BKN020 BKN040 15/12 Q1011 BECMG 9999 NSW FEW020 SCT040 RMK WHT BECMG BLU +SHRA WSW (250°) 23.0mph 15°C 12°C
2/07/20 12:20 EGVO 021120Z 24012KT 9999 FEW018 SCT040 BKN100 16/13 Q1011 TEMPO 5000 SHRA BKN020 RMK BLU TEMPO WHT WSW (240°) 13.8mph 16°C 13°C
2/07/20 12:15 EGVO 021115Z 24013KT 9999 FEW018 SCT040 BKN100 16/13 Q1011 TEMPO 5000 SHRA BKN020 RMK BLU TEMPO WHT WSW (240°) 15.0mph 16°C 13°C
2/07/20 11:20 EGVO 021020Z 24011KT 9999 FEW014 BKN060 16/13 Q1011 TEMPO 4000 SHRA SCT020 RMK BLU TEMPO GRN WSW (240°) 12.7mph 16°C 13°C
2/07/20 10:50 EGVO 020950Z 24012KT 9999 SCT012 BKN040 BKN060 15/13 Q1011 TEMPO 6000 SHRA SCT015 RMK GRN TEMPO WHT WSW (240°) 13.8mph 15°C 13°C
2/07/20 10:20 EGVO 020920Z 27013KT 9999 5000N -SHRA FEW012 BKN015 BKN040 15/13 Q1010 TEMPO 9999 NSW RMK WHT TEMPO WHT -SHRA W (270°) 15.0mph 15°C 13°C
2/07/20 09:50 EGVO 020850Z 24012KT 9999 BKN016 BKN050 15/12 Q1010 TEMPO 7000 SHRA RMK WHT TEMPO WHT WSW (240°) 13.8mph 15°C 12°C
2/07/20 09:20 EGVO 020820Z 24013KT 9999 SCT015 BKN050 15/12 Q1010 TEMPO FEW018 RMK WHT TEMPO BLU WSW (240°) 15.0mph 15°C 12°C
2/07/20 08:50 EGVO 020750Z 24013KT 9999 FEW012 SCT050 BKN070 15/12 Q1010 BLU TEMPO SCT015 RMK BLU TEMPO WHT WSW (240°) 15.0mph 15°C 12°C
2/07/20 07:50 EGVO 020650Z AUTO 23012KT 9999 FEW009/// BKN039/// BKN060/// 13/12 Q1009 SW (230°) 13.8mph 13°C 12°C
2/07/20 06:50 EGVO 020550Z AUTO 22009KT 9999 FEW007/// 12/11 Q1009 SW (220°) 10.4mph 12°C 11°C
2/07/20 05:50 EGVO 020450Z AUTO 21008KT 9999 NCD 11/10 Q1009 SSW (210°) 9.2mph 11°C 10°C
2/07/20 04:50 EGVO 020350Z AUTO 22006KT 9999 NCD 11/10 Q1009 SW (220°) 6.9mph 11°C 10°C
2/07/20 03:50 EGVO 020250Z AUTO 22005KT 9999 FEW043/// 11/10 Q1009 SW (220°) 5.8mph 11°C 10°C
2/07/20 02:50 EGVO 020150Z AUTO 21006KT 9999 FEW250/// 11/10 Q1009 SSW (210°) 6.9mph 11°C 10°C
2/07/20 02:22 EGVO 020122Z 21005KT CAVOK 12/11 Q1009 NOSIG RMK BLU BLU SSW (210°) 5.8mph 12°C 11°C
2/07/20 01:50 EGVO 020050Z 21006KT 9999 FEW030 11/10 Q1009 NOSIG RMK BLU BLU SSW (210°) 6.9mph 11°C 10°C
2/07/20 01:23 EGVO 020023Z 21006KT 9999 FEW040 11/10 Q1009 NOSIG RMK BLU BLU SSW (210°) 6.9mph 11°C 10°C
2/07/20 00:50 EGVO 012350Z 22006KT 9999 FEW040 12/10 Q1009 NOSIG RMK BLU BLU SW (220°) 6.9mph 12°C 10°C
2/07/20 00:20 EGVO 012320Z 24007KT 9999 FEW040 13/11 Q1009 NOSIG RMK BLU BLU WSW (240°) 8.1mph 13°C 11°C
1/07/20 23:50 EGVO 012250Z 25009KT 9999 FEW037 SCT070 13/12 Q1009 NOSIG RMK BLU BLU WSW (250°) 10.4mph 13°C 12°C
1/07/20 23:22 EGVO 012222Z 25007KT 9999 FEW036 SCT060 14/13 Q1008 NOSIG RMK BLU BLU WSW (250°) 8.1mph 14°C 13°C
1/07/20 22:50 EGVO 012150Z 24006KT 9999 SCT040 BKN070 14/13 Q1008 NOSIG RMK BLU BLU WSW (240°) 6.9mph 14°C 13°C
1/07/20 22:22 EGVO 012122Z 24003KT CAVOK 14/14 Q1008 NOSIG RMK BLU BLU WSW (240°) 3.5mph 14°C 14°C
1/07/20 21:50 EGVO 012050Z 21007KT CAVOK 15/14 Q1008 NOSIG RMK BLU BLU SSW (210°) 8.1mph 15°C 14°C
1/07/20 21:22 EGVO 012022Z 21007KT 9999 FEW020 SCT049 BKN080 15/14 Q1007 TEMPO 7000 SHRA SCT020 RMK BLU TEMPO WHT SSW (210°) 8.1mph 15°C 14°C
1/07/20 20:50 EGVO 011950Z 22006KT 9999 FEW007 BKN035 15/14 Q1007 TEMPO 7000 SHRA SCT020 RMK BLU TEMPO WHT SW (220°) 6.9mph 15°C 14°C
1/07/20 20:20 EGVO 011920Z 23006KT 9999 FEW020 SCT025 15/14 Q1007 TEMPO 7000 SHRA SCT020 RMK BLU TEMPO WHT SW (230°) 6.9mph 15°C 14°C
1/07/20 19:50 EGVO 011850Z 25006KT 9999 SCT017 BKN050 15/14 Q1007 TEMPO 7000 SHRA RMK WHT TEMPO WHT WSW (250°) 6.9mph 15°C 14°C
1/07/20 19:35 EGVO 011835Z 25008KT 9999 6000SW -SHRA FEW007 SCT020 BKN050 15/14 Q1007 TEMPO 7000 SHRA RMK WHT TEMPO WHT -SHRA WSW (250°) 9.2mph 15°C 14°C
1/07/20 18:50 EGVO 011750Z 26008KT 9999 SCT020 BKN050 15/14 Q1007 TEMPO 7000 SHRA RMK WHT TEMPO WHT W (260°) 9.2mph 15°C 14°C
1/07/20 18:20 EGVO 011720Z 25007KT 8000 SHRA BKN018 SCT050 15/14 Q1007 TEMPO 7000 SHRA RMK WHT TEMPO WHT SHRA WSW (250°) 8.1mph 15°C 14°C
1/07/20 17:50 EGVO 011650Z 26008KT 9999 -SHRA BKN018 SCT035 16/15 Q1007 TEMPO 7000 SHRA RMK WHT TEMPO WHT -SHRA W (260°) 9.2mph 16°C 15°C
1/07/20 17:20 EGVO 011620Z 26010KT 9999 SCT020 BKN050 16/15 Q1007 TEMPO 7000 SHRA RMK WHT TEMPO WHT W (260°) 11.5mph 16°C 15°C
1/07/20 16:50 EGVO 011550Z 25008KT 9999 SCT022 BKN050 16/15 Q1007 TEMPO 7000 SHRA RMK WHT TEMPO WHT WSW (250°) 9.2mph 16°C 15°C
1/07/20 16:31 EGVO 011531Z 25009KT 8000 SHRA BKN022 SCT060 16/15 Q1007 TEMPO 7000 RMK WHT TEMPO WHT SHRA WSW (250°) 10.4mph 16°C 15°C
1/07/20 15:50 EGVO 011450Z 26007KT 9999 SCT018 SCT050 16/15 Q1006 TEMPO 7000 SHRA RMK WHT TEMPO WHT W (260°) 8.1mph 16°C 15°C
1/07/20 15:34 EGVO 011434Z 28010KT 9999 FEW016 SCT042 16/15 Q1006 TEMPO 7000 SHRA BKN016 RMK BLU TEMPO WHT W (280°) 11.5mph 16°C 15°C
1/07/20 14:50 EGVO 011350Z 22012KT 9999 SCT022 BKN060 18/15 Q1006 TEMPO 7000 SHRA RMK WHT TEMPO WHT SW (220°) 13.8mph 18°C 15°C
1/07/20 14:20 EGVO 011320Z 20011KT 9999 SCT022 BKN048 19/14 Q1006 TEMPO FEW022 RMK WHT TEMPO BLU SSW (200°) 12.7mph 19°C 14°C